sensor_id;sensor_type;location;lat;lon;timestamp;temperature;humidity
72128;DHT22;60000;51.030;7.024;2022-07-01T00:01:22;15.23;84.26
72128;DHT22;60000;51.030;7.024;2022-07-01T00:03:48;15.26;84.56
72128;DHT22;60000;51.030;7.024;2022-07-01T00:06:19;15.24;84.34
72128;DHT22;60000;51.030;7.024;2022-07-01T00:08:45;15.23;84.25
72128;DHT22;60000;51.030;7.024;2022-07-01T00:11:11;15.24;84.03
72128;DHT22;60000;51.030;7.024;2022-07-01T00:13:36;15.18;84.24
72128;DHT22;60000;51.030;7.024;2022-07-01T00:16:02;15.13;84.26
72128;DHT22;60000;51.030;7.024;2022-07-01T00:18:27;15.07;84.49
72128;DHT22;60000;51.030;7.024;2022-07-01T00:20:53;15.07;84.52
72128;DHT22;60000;51.030;7.024;2022-07-01T00:23:18;15.03;84.61
72128;DHT22;60000;51.030;7.024;2022-07-01T00:25:44;15.02;84.79
72128;DHT22;60000;51.030;7.024;2022-07-01T00:28:09;15.06;84.92
72128;DHT22;60000;51.030;7.024;2022-07-01T00:30:35;15.02;84.71
72128;DHT22;60000;51.030;7.024;2022-07-01T00:33:00;15.03;84.27
72128;DHT22;60000;51.030;7.024;2022-07-01T00:35:26;15.02;84.41
72128;DHT22;60000;51.030;7.024;2022-07-01T00:37:51;15.03;84.39
72128;DHT22;60000;51.030;7.024;2022-07-01T00:40:16;14.99;84.60
72128;DHT22;60000;51.030;7.024;2022-07-01T00:42:42;14.98;84.61
72128;DHT22;60000;51.030;7.024;2022-07-01T00:45:09;14.98;84.51
72128;DHT22;60000;51.030;7.024;2022-07-01T00:47:39;14.96;84.55
72128;DHT22;60000;51.030;7.024;2022-07-01T00:50:12;14.96;84.69
72128;DHT22;60000;51.030;7.024;2022-07-01T00:52:42;14.93;84.57
72128;DHT22;60000;51.030;7.024;2022-07-01T00:55:10;14.92;84.86
72128;DHT22;60000;51.030;7.024;2022-07-01T00:57:37;14.93;84.63
72128;DHT22;60000;51.030;7.024;2022-07-01T01:00:11;14.89;84.72
72128;DHT22;60000;51.030;7.024;2022-07-01T01:02:37;14.93;84.52
72128;DHT22;60000;51.030;7.024;2022-07-01T01:05:04;14.93;84.85
72128;DHT22;60000;51.030;7.024;2022-07-01T01:07:31;14.96;85.23
72128;DHT22;60000;51.030;7.024;2022-07-01T01:09:58;14.95;84.67
72128;DHT22;60000;51.030;7.024;2022-07-01T01:12:28;14.95;84.42
72128;DHT22;60000;51.030;7.024;2022-07-01T01:14:54;14.93;84.74
72128;DHT22;60000;51.030;7.024;2022-07-01T01:17:20;14.93;84.91
72128;DHT22;60000;51.030;7.024;2022-07-01T01:19:48;14.93;84.50
72128;DHT22;60000;51.030;7.024;2022-07-01T01:22:17;14.98;84.79
72128;DHT22;60000;51.030;7.024;2022-07-01T01:24:44;14.99;84.48
72128;DHT22;60000;51.030;7.024;2022-07-01T01:27:09;14.98;84.40
72128;DHT22;60000;51.030;7.024;2022-07-01T01:29:36;15.02;84.26
72128;DHT22;60000;51.030;7.024;2022-07-01T01:32:05;15.02;84.40
72128;DHT22;60000;51.030;7.024;2022-07-01T01:34:35;15.02;84.27
72128;DHT22;60000;51.030;7.024;2022-07-01T01:37:02;15.04;84.51
72128;DHT22;60000;51.030;7.024;2022-07-01T01:39:28;15.04;84.35
72128;DHT22;60000;51.030;7.024;2022-07-01T01:41:53;15.09;84.55
72128;DHT22;60000;51.030;7.024;2022-07-01T01:44:18;15.09;84.59
72128;DHT22;60000;51.030;7.024;2022-07-01T01:46:44;15.04;84.40
72128;DHT22;60000;51.030;7.024;2022-07-01T01:49:09;15.10;84.57
72128;DHT22;60000;51.030;7.024;2022-07-01T01:51:36;15.06;84.51
72128;DHT22;60000;51.030;7.024;2022-07-01T01:54:01;15.10;84.04
72128;DHT22;60000;51.030;7.024;2022-07-01T01:56:27;15.12;84.47
72128;DHT22;60000;51.030;7.024;2022-07-01T01:58:52;15.10;84.53
72128;DHT22;60000;51.030;7.024;2022-07-01T02:01:18;15.13;84.21
72128;DHT22;60000;51.030;7.024;2022-07-01T02:03:46;15.13;84.24
72128;DHT22;60000;51.030;7.024;2022-07-01T02:06:13;15.14;84.32
72128;DHT22;60000;51.030;7.024;2022-07-01T02:08:38;15.16;84.71
72128;DHT22;60000;51.030;7.024;2022-07-01T02:11:04;15.18;84.59
72128;DHT22;60000;51.030;7.024;2022-07-01T02:13:30;15.18;84.60
72128;DHT22;60000;51.030;7.024;2022-07-01T02:15:56;15.16;84.94
72128;DHT22;60000;51.030;7.024;2022-07-01T02:18:22;15.16;84.60
72128;DHT22;60000;51.030;7.024;2022-07-01T02:20:47;15.16;85.02
72128;DHT22;60000;51.030;7.024;2022-07-01T02:23:12;15.18;84.68
72128;DHT22;60000;51.030;7.024;2022-07-01T02:25:38;15.18;83.99
72128;DHT22;60000;51.030;7.024;2022-07-01T02:28:03;15.14;84.29
72128;DHT22;60000;51.030;7.024;2022-07-01T02:30:29;15.14;84.12
72128;DHT22;60000;51.030;7.024;2022-07-01T02:32:56;15.12;83.76
72128;DHT22;60000;51.030;7.024;2022-07-01T02:35:21;15.09;83.76
72128;DHT22;60000;51.030;7.024;2022-07-01T02:37:46;15.09;84.03
72128;DHT22;60000;51.030;7.024;2022-07-01T02:40:12;15.06;84.30
72128;DHT22;60000;51.030;7.024;2022-07-01T02:42:38;15.09;84.04
72128;DHT22;60000;51.030;7.024;2022-07-01T02:45:05;15.09;84.11
72128;DHT22;60000;51.030;7.024;2022-07-01T02:47:38;15.10;84.16
72128;DHT22;60000;51.030;7.024;2022-07-01T02:50:05;15.10;84.48
72128;DHT22;60000;51.030;7.024;2022-07-01T02:52:32;15.10;84.65
72128;DHT22;60000;51.030;7.024;2022-07-01T02:54:59;15.12;84.50
72128;DHT22;60000;51.030;7.024;2022-07-01T02:57:25;15.10;84.45
72128;DHT22;60000;51.030;7.024;2022-07-01T02:59:50;15.09;84.25
72128;DHT22;60000;51.030;7.024;2022-07-01T03:02:16;15.09;84.76
72128;DHT22;60000;51.030;7.024;2022-07-01T03:04:43;15.06;84.79
72128;DHT22;60000;51.030;7.024;2022-07-01T03:07:08;15.06;84.85
72128;DHT22;60000;51.030;7.024;2022-07-01T03:09:34;15.07;84.77
72128;DHT22;60000;51.030;7.024;2022-07-01T03:12:00;15.04;84.53
72128;DHT22;60000;51.030;7.024;2022-07-01T03:14:45;15.06;84.62
72128;DHT22;60000;51.030;7.024;2022-07-01T03:17:11;15.03;84.68
72128;DHT22;60000;51.030;7.024;2022-07-01T03:19:36;15.00;85.03
72128;DHT22;60000;51.030;7.024;2022-07-01T03:22:01;14.98;84.66
72128;DHT22;60000;51.030;7.024;2022-07-01T03:24:27;14.96;84.49
72128;DHT22;60000;51.030;7.024;2022-07-01T03:26:52;14.95;84.17
72128;DHT22;60000;51.030;7.024;2022-07-01T03:29:17;14.93;83.96
72128;DHT22;60000;51.030;7.024;2022-07-01T03:31:43;14.91;84.03
72128;DHT22;60000;51.030;7.024;2022-07-01T03:34:08;14.91;84.13
72128;DHT22;60000;51.030;7.024;2022-07-01T03:36:33;14.89;84.37
72128;DHT22;60000;51.030;7.024;2022-07-01T03:38:58;14.88;84.26
72128;DHT22;60000;51.030;7.024;2022-07-01T03:41:26;14.86;84.27
72128;DHT22;60000;51.030;7.024;2022-07-01T03:43:51;14.86;84.13
72128;DHT22;60000;51.030;7.024;2022-07-01T03:46:16;14.81;84.22
72128;DHT22;60000;51.030;7.024;2022-07-01T03:48:42;14.82;84.14
72128;DHT22;60000;51.030;7.024;2022-07-01T03:51:07;14.83;84.44
72128;DHT22;60000;51.030;7.024;2022-07-01T03:53:36;14.81;83.88
72128;DHT22;60000;51.030;7.024;2022-07-01T03:56:20;14.88;84.29
72128;DHT22;60000;51.030;7.024;2022-07-01T03:58:45;14.89;83.72
72128;DHT22;60000;51.030;7.024;2022-07-01T04:01:10;14.91;84.10
72128;DHT22;60000;51.030;7.024;2022-07-01T04:03:36;14.93;84.09
72128;DHT22;60000;51.030;7.024;2022-07-01T04:06:01;14.91;84.03
72128;DHT22;60000;51.030;7.024;2022-07-01T04:08:27;14.93;83.97
72128;DHT22;60000;51.030;7.024;2022-07-01T04:10:52;14.91;83.45
72128;DHT22;60000;51.030;7.024;2022-07-01T04:13:20;14.88;83.69
72128;DHT22;60000;51.030;7.024;2022-07-01T04:15:46;14.88;83.53
72128;DHT22;60000;51.030;7.024;2022-07-01T04:18:11;14.86;83.40
72128;DHT22;60000;51.030;7.024;2022-07-01T04:20:37;14.82;83.29
72128;DHT22;60000;51.030;7.024;2022-07-01T04:23:02;14.83;83.34
72128;DHT22;60000;51.030;7.024;2022-07-01T04:25:28;14.83;83.18
72128;DHT22;60000;51.030;7.024;2022-07-01T04:27:55;14.82;83.60
72128;DHT22;60000;51.030;7.024;2022-07-01T04:30:21;14.79;83.27
72128;DHT22;60000;51.030;7.024;2022-07-01T04:32:46;14.85;82.65
72128;DHT22;60000;51.030;7.024;2022-07-01T04:35:12;14.83;82.47
72128;DHT22;60000;51.030;7.024;2022-07-01T04:37:39;14.85;82.33
72128;DHT22;60000;51.030;7.024;2022-07-01T04:40:06;14.85;81.88
72128;DHT22;60000;51.030;7.024;2022-07-01T04:42:31;14.82;81.60
72128;DHT22;60000;51.030;7.024;2022-07-01T04:44:59;14.81;82.03
72128;DHT22;60000;51.030;7.024;2022-07-01T04:47:24;14.82;81.75
72128;DHT22;60000;51.030;7.024;2022-07-01T04:49:49;14.79;82.35
72128;DHT22;60000;51.030;7.024;2022-07-01T04:52:15;14.82;82.21
72128;DHT22;60000;51.030;7.024;2022-07-01T04:54:40;14.82;81.85
72128;DHT22;60000;51.030;7.024;2022-07-01T04:57:06;14.79;81.87
72128;DHT22;60000;51.030;7.024;2022-07-01T04:59:31;14.79;81.68
72128;DHT22;60000;51.030;7.024;2022-07-01T05:01:57;14.82;81.59
72128;DHT22;60000;51.030;7.024;2022-07-01T05:04:23;14.86;81.41
72128;DHT22;60000;51.030;7.024;2022-07-01T05:06:51;14.88;81.61
72128;DHT22;60000;51.030;7.024;2022-07-01T05:09:16;14.91;80.93
72128;DHT22;60000;51.030;7.024;2022-07-01T05:11:42;14.92;80.90
72128;DHT22;60000;51.030;7.024;2022-07-01T05:14:07;14.92;81.06
72128;DHT22;60000;51.030;7.024;2022-07-01T05:16:34;14.92;81.23
72128;DHT22;60000;51.030;7.024;2022-07-01T05:19:00;14.95;81.38
72128;DHT22;60000;51.030;7.024;2022-07-01T05:21:44;14.96;80.89
72128;DHT22;60000;51.030;7.024;2022-07-01T05:24:22;14.98;80.88
72128;DHT22;60000;51.030;7.024;2022-07-01T05:26:48;14.98;80.74
72128;DHT22;60000;51.030;7.024;2022-07-01T05:29:14;15.02;80.83
72128;DHT22;60000;51.030;7.024;2022-07-01T05:31:39;15.04;80.70
72128;DHT22;60000;51.030;7.024;2022-07-01T05:34:04;15.10;80.89
72128;DHT22;60000;51.030;7.024;2022-07-01T05:36:32;15.13;80.77
72128;DHT22;60000;51.030;7.024;2022-07-01T05:38:57;15.18;81.45
72128;DHT22;60000;51.030;7.024;2022-07-01T05:41:22;15.18;80.97
72128;DHT22;60000;51.030;7.024;2022-07-01T05:43:48;15.22;80.73
72128;DHT22;60000;51.030;7.024;2022-07-01T05:46:13;15.22;80.45
72128;DHT22;60000;51.030;7.024;2022-07-01T05:48:39;15.20;80.86
72128;DHT22;60000;51.030;7.024;2022-07-01T05:51:04;15.23;80.71
72128;DHT22;60000;51.030;7.024;2022-07-01T05:53:29;15.27;80.84
72128;DHT22;60000;51.030;7.024;2022-07-01T05:55:55;15.27;80.16
72128;DHT22;60000;51.030;7.024;2022-07-01T05:58:20;15.30;80.39
72128;DHT22;60000;51.030;7.024;2022-07-01T06:00:45;15.36;79.95
72128;DHT22;60000;51.030;7.024;2022-07-01T06:03:12;15.41;79.94
72128;DHT22;60000;51.030;7.024;2022-07-01T06:05:38;15.44;80.22
72128;DHT22;60000;51.030;7.024;2022-07-01T06:08:04;15.49;80.05
72128;DHT22;60000;51.030;7.024;2022-07-01T06:10:29;15.55;80.35
72128;DHT22;60000;51.030;7.024;2022-07-01T06:12:55;15.61;79.10
72128;DHT22;60000;51.030;7.024;2022-07-01T06:15:20;15.67;79.44
72128;DHT22;60000;51.030;7.024;2022-07-01T06:17:45;15.77;79.90
72128;DHT22;60000;51.030;7.024;2022-07-01T06:20:11;15.85;79.25
72128;DHT22;60000;51.030;7.024;2022-07-01T06:22:36;15.91;79.29
72128;DHT22;60000;51.030;7.024;2022-07-01T06:25:02;16.01;78.43
72128;DHT22;60000;51.030;7.024;2022-07-01T06:27:28;16.02;77.99
72128;DHT22;60000;51.030;7.024;2022-07-01T06:29:54;16.11;78.74
72128;DHT22;60000;51.030;7.024;2022-07-01T06:32:19;16.18;78.11
72128;DHT22;60000;51.030;7.024;2022-07-01T06:34:45;16.22;78.47
72128;DHT22;60000;51.030;7.024;2022-07-01T06:37:11;16.29;77.70
72128;DHT22;60000;51.030;7.024;2022-07-01T06:39:36;16.34;77.44
72128;DHT22;60000;51.030;7.024;2022-07-01T06:42:02;16.43;77.73
72128;DHT22;60000;51.030;7.024;2022-07-01T06:44:27;16.55;77.58
72128;DHT22;60000;51.030;7.024;2022-07-01T06:46:53;16.79;77.40
72128;DHT22;60000;51.030;7.024;2022-07-01T06:49:18;16.94;76.36
72128;DHT22;60000;51.030;7.024;2022-07-01T06:51:43;17.08;75.32
72128;DHT22;60000;51.030;7.024;2022-07-01T06:54:09;17.24;75.50
72128;DHT22;60000;51.030;7.024;2022-07-01T06:56:34;17.38;74.89
72128;DHT22;60000;51.030;7.024;2022-07-01T06:59:00;17.52;74.59
72128;DHT22;60000;51.030;7.024;2022-07-01T07:01:26;17.59;73.80
72128;DHT22;60000;51.030;7.024;2022-07-01T07:03:52;17.63;73.19
72128;DHT22;60000;51.030;7.024;2022-07-01T07:06:17;17.69;72.62
72128;DHT22;60000;51.030;7.024;2022-07-01T07:08:42;17.66;71.44
72128;DHT22;60000;51.030;7.024;2022-07-01T07:11:08;17.62;71.79
72128;DHT22;60000;51.030;7.024;2022-07-01T07:13:34;17.61;72.50
72128;DHT22;60000;51.030;7.024;2022-07-01T07:15:59;17.55;71.91
72128;DHT22;60000;51.030;7.024;2022-07-01T07:18:25;17.50;71.33
72128;DHT22;60000;51.030;7.024;2022-07-01T07:20:50;17.48;71.40
72128;DHT22;60000;51.030;7.024;2022-07-01T07:23:16;17.46;71.24
72128;DHT22;60000;51.030;7.024;2022-07-01T07:25:41;17.45;71.34
72128;DHT22;60000;51.030;7.024;2022-07-01T07:28:07;17.39;71.71
72128;DHT22;60000;51.030;7.024;2022-07-01T07:30:32;17.40;72.80
72128;DHT22;60000;51.030;7.024;2022-07-01T07:32:58;17.40;72.01
72128;DHT22;60000;51.030;7.024;2022-07-01T07:35:23;17.45;71.35
72128;DHT22;60000;51.030;7.024;2022-07-01T07:37:49;17.49;71.52
72128;DHT22;60000;51.030;7.024;2022-07-01T07:40:14;17.53;71.96
72128;DHT22;60000;51.030;7.024;2022-07-01T07:42:44;17.58;71.94
72128;DHT22;60000;51.030;7.024;2022-07-01T07:45:10;17.63;71.41
72128;DHT22;60000;51.030;7.024;2022-07-01T07:47:37;17.61;70.72
72128;DHT22;60000;51.030;7.024;2022-07-01T07:50:04;17.70;71.12
72128;DHT22;60000;51.030;7.024;2022-07-01T07:52:33;17.79;69.25
72128;DHT22;60000;51.030;7.024;2022-07-01T07:54:58;17.80;69.91
72128;DHT22;60000;51.030;7.024;2022-07-01T07:57:23;17.86;70.73
72128;DHT22;60000;51.030;7.024;2022-07-01T07:59:49;17.91;71.20
72128;DHT22;60000;51.030;7.024;2022-07-01T08:02:14;18.00;69.68
72128;DHT22;60000;51.030;7.024;2022-07-01T08:04:42;18.16;71.48
72128;DHT22;60000;51.030;7.024;2022-07-01T08:07:07;18.17;69.79
72128;DHT22;60000;51.030;7.024;2022-07-01T08:09:32;18.21;70.10
72128;DHT22;60000;51.030;7.024;2022-07-01T08:12:02;18.37;70.59
72128;DHT22;60000;51.030;7.024;2022-07-01T08:14:28;18.73;70.55
72128;DHT22;60000;51.030;7.024;2022-07-01T08:16:54;19.13;69.76
72128;DHT22;60000;51.030;7.024;2022-07-01T08:19:19;19.50;69.43
72128;DHT22;60000;51.030;7.024;2022-07-01T08:21:45;19.78;67.57
72128;DHT22;60000;51.030;7.024;2022-07-01T08:24:10;19.96;66.92
72128;DHT22;60000;51.030;7.024;2022-07-01T08:26:35;20.05;65.74
72128;DHT22;60000;51.030;7.024;2022-07-01T08:29:01;20.42;66.25
72128;DHT22;60000;51.030;7.024;2022-07-01T08:31:26;20.66;63.99
72128;DHT22;60000;51.030;7.024;2022-07-01T08:33:52;20.85;62.72
72128;DHT22;60000;51.030;7.024;2022-07-01T08:36:17;21.03;62.15
72128;DHT22;60000;51.030;7.024;2022-07-01T08:38:42;21.04;59.52
72128;DHT22;60000;51.030;7.024;2022-07-01T08:41:08;21.05;60.13
72128;DHT22;60000;51.030;7.024;2022-07-01T08:43:34;20.91;57.70
72128;DHT22;60000;51.030;7.024;2022-07-01T08:46:01;20.83;59.76
72128;DHT22;60000;51.030;7.024;2022-07-01T08:48:27;20.73;59.23
72128;DHT22;60000;51.030;7.024;2022-07-01T08:50:53;20.53;58.70
72128;DHT22;60000;51.030;7.024;2022-07-01T08:53:18;20.36;59.03
72128;DHT22;60000;51.030;7.024;2022-07-01T08:55:44;20.25;61.18
72128;DHT22;60000;51.030;7.024;2022-07-01T08:58:28;20.30;61.29
72128;DHT22;60000;51.030;7.024;2022-07-01T09:00:55;20.29;60.04
72128;DHT22;60000;51.030;7.024;2022-07-01T09:03:36;20.28;61.95
72128;DHT22;60000;51.030;7.024;2022-07-01T09:06:01;20.43;63.13
72128;DHT22;60000;51.030;7.024;2022-07-01T09:08:27;20.56;61.63
72128;DHT22;60000;51.030;7.024;2022-07-01T09:10:53;20.62;61.53
72128;DHT22;60000;51.030;7.024;2022-07-01T09:13:19;20.79;62.10
72128;DHT22;60000;51.030;7.024;2022-07-01T09:15:44;20.57;60.60
72128;DHT22;60000;51.030;7.024;2022-07-01T09:18:15;20.43;60.30
72128;DHT22;60000;51.030;7.024;2022-07-01T09:20:45;20.46;60.75
72128;DHT22;60000;51.030;7.024;2022-07-01T09:23:12;20.46;60.40
72128;DHT22;60000;51.030;7.024;2022-07-01T09:25:42;20.32;60.29
72128;DHT22;60000;51.030;7.024;2022-07-01T09:28:11;20.25;61.61
72128;DHT22;60000;51.030;7.024;2022-07-01T09:30:38;20.21;60.09
72128;DHT22;60000;51.030;7.024;2022-07-01T09:33:30;19.99;59.38
72128;DHT22;60000;51.030;7.024;2022-07-01T09:35:56;19.84;60.76
72128;DHT22;60000;51.030;7.024;2022-07-01T09:38:24;19.81;61.01
72128;DHT22;60000;51.030;7.024;2022-07-01T09:43:26;19.99;57.97
72128;DHT22;60000;51.030;7.024;2022-07-01T09:48:42;20.06;58.56
72128;DHT22;60000;51.030;7.024;2022-07-01T09:51:09;20.25;60.25
72128;DHT22;60000;51.030;7.024;2022-07-01T09:53:35;20.42;58.76
72128;DHT22;60000;51.030;7.024;2022-07-01T09:56:01;20.79;58.94
72128;DHT22;60000;51.030;7.024;2022-07-01T09:58:26;20.95;58.15
72128;DHT22;60000;51.030;7.024;2022-07-01T10:00:53;21.07;56.67
72128;DHT22;60000;51.030;7.024;2022-07-01T10:03:19;21.45;59.61
72128;DHT22;60000;51.030;7.024;2022-07-01T10:05:49;21.51;55.61
72128;DHT22;60000;51.030;7.024;2022-07-01T10:11:34;21.85;54.09
72128;DHT22;60000;51.030;7.024;2022-07-01T10:14:07;22.01;55.39
72128;DHT22;60000;51.030;7.024;2022-07-01T10:16:34;22.52;56.20
72128;DHT22;60000;51.030;7.024;2022-07-01T10:19:27;23.12;54.13
72128;DHT22;60000;51.030;7.024;2022-07-01T10:21:53;23.74;53.45
72128;DHT22;60000;51.030;7.024;2022-07-01T10:24:22;23.94;49.76
72128;DHT22;60000;51.030;7.024;2022-07-01T10:26:48;23.94;46.35
72128;DHT22;60000;51.030;7.024;2022-07-01T10:29:34;24.11;49.04
72128;DHT22;60000;51.030;7.024;2022-07-01T10:32:08;24.14;47.48
72128;DHT22;60000;51.030;7.024;2022-07-01T10:34:36;24.46;48.65
72128;DHT22;60000;51.030;7.024;2022-07-01T10:37:07;24.75;46.83
72128;DHT22;60000;51.030;7.024;2022-07-01T10:40:04;24.76;46.12
72128;DHT22;60000;51.030;7.024;2022-07-01T10:42:57;25.03;45.17
72128;DHT22;60000;51.030;7.024;2022-07-01T10:45:23;25.03;44.88
72128;DHT22;60000;51.030;7.024;2022-07-01T10:48:18;24.67;42.85
72128;DHT22;60000;51.030;7.024;2022-07-01T10:50:45;24.33;42.08
72128;DHT22;60000;51.030;7.024;2022-07-01T10:53:11;24.38;44.86
72128;DHT22;60000;51.030;7.024;2022-07-01T10:55:54;24.38;43.53
72128;DHT22;60000;51.030;7.024;2022-07-01T10:58:38;24.36;44.46
72128;DHT22;60000;51.030;7.024;2022-07-01T11:01:04;24.51;46.20
72128;DHT22;60000;51.030;7.024;2022-07-01T11:03:34;24.56;45.38
72128;DHT22;60000;51.030;7.024;2022-07-01T11:06:00;24.57;42.56
72128;DHT22;60000;51.030;7.024;2022-07-01T11:08:25;24.22;43.24
72128;DHT22;60000;51.030;7.024;2022-07-01T11:10:56;24.05;42.47
72128;DHT22;60000;51.030;7.024;2022-07-01T11:13:25;23.85;44.69
72128;DHT22;60000;51.030;7.024;2022-07-01T11:15:51;23.47;44.35
72128;DHT22;60000;51.030;7.024;2022-07-01T11:18:17;23.18;44.47
72128;DHT22;60000;51.030;7.024;2022-07-01T11:20:43;23.12;45.60
72128;DHT22;60000;51.030;7.024;2022-07-01T11:23:09;23.10;45.93
72128;DHT22;60000;51.030;7.024;2022-07-01T11:25:34;23.26;47.68
72128;DHT22;60000;51.030;7.024;2022-07-01T11:27:59;23.27;48.27
72128;DHT22;60000;51.030;7.024;2022-07-01T11:30:25;23.53;49.09
72128;DHT22;60000;51.030;7.024;2022-07-01T11:32:55;23.85;47.43
72128;DHT22;60000;51.030;7.024;2022-07-01T11:35:24;24.22;43.84
72128;DHT22;60000;51.030;7.024;2022-07-01T11:38:19;24.45;44.25
72128;DHT22;60000;51.030;7.024;2022-07-01T11:41:08;24.56;44.40
72128;DHT22;60000;51.030;7.024;2022-07-01T11:43:36;24.57;42.86
72128;DHT22;60000;51.030;7.024;2022-07-01T11:46:03;24.60;44.25
72128;DHT22;60000;51.030;7.024;2022-07-01T11:48:31;24.57;43.10
72128;DHT22;60000;51.030;7.024;2022-07-01T11:50:58;24.56;43.80
72128;DHT22;60000;51.030;7.024;2022-07-01T11:53:24;24.46;43.87
72128;DHT22;60000;51.030;7.024;2022-07-01T11:55:49;24.42;43.68
72128;DHT22;60000;51.030;7.024;2022-07-01T11:58:14;24.15;43.88
72128;DHT22;60000;51.030;7.024;2022-07-01T12:00:40;24.01;41.65
72128;DHT22;60000;51.030;7.024;2022-07-01T12:03:05;23.88;43.36
72128;DHT22;60000;51.030;7.024;2022-07-01T12:05:34;23.85;43.69
72128;DHT22;60000;51.030;7.024;2022-07-01T12:07:59;23.89;45.86
72128;DHT22;60000;51.030;7.024;2022-07-01T12:10:25;24.04;47.02
72128;DHT22;60000;51.030;7.024;2022-07-01T12:12:51;24.38;46.07
72128;DHT22;60000;51.030;7.024;2022-07-01T12:15:18;24.70;44.93
72128;DHT22;60000;51.030;7.024;2022-07-01T12:17:45;24.93;44.57
72128;DHT22;60000;51.030;7.024;2022-07-01T12:20:10;25.11;44.06
72128;DHT22;60000;51.030;7.024;2022-07-01T12:22:36;25.35;43.56
72128;DHT22;60000;51.030;7.024;2022-07-01T12:25:09;25.45;42.75
72128;DHT22;60000;51.030;7.024;2022-07-01T12:27:36;25.55;42.50
72128;DHT22;60000;51.030;7.024;2022-07-01T12:30:04;25.45;42.12
72128;DHT22;60000;51.030;7.024;2022-07-01T12:32:30;25.41;40.64
72128;DHT22;60000;51.030;7.024;2022-07-01T12:35:05;25.23;40.91
72128;DHT22;60000;51.030;7.024;2022-07-01T12:37:35;24.80;41.17
72128;DHT22;60000;51.030;7.024;2022-07-01T12:40:06;24.63;40.93
72128;DHT22;60000;51.030;7.024;2022-07-01T12:45:09;23.95;41.58
72128;DHT22;60000;51.030;7.024;2022-07-01T12:47:38;23.89;44.11
72128;DHT22;60000;51.030;7.024;2022-07-01T12:50:18;24.07;43.24
72128;DHT22;60000;51.030;7.024;2022-07-01T12:53:04;24.35;43.54
72128;DHT22;60000;51.030;7.024;2022-07-01T12:55:50;24.65;42.91
72128;DHT22;60000;51.030;7.024;2022-07-01T12:58:22;24.80;42.37
72128;DHT22;60000;51.030;7.024;2022-07-01T13:00:50;25.00;41.25
72128;DHT22;60000;51.030;7.024;2022-07-01T13:03:19;25.20;41.74
72128;DHT22;60000;51.030;7.024;2022-07-01T13:05:45;25.37;41.32
72128;DHT22;60000;51.030;7.024;2022-07-01T13:08:10;25.38;39.66
72128;DHT22;60000;51.030;7.024;2022-07-01T13:10:37;25.51;42.08
72128;DHT22;60000;51.030;7.024;2022-07-01T13:13:03;25.41;41.10
72128;DHT22;60000;51.030;7.024;2022-07-01T13:15:29;25.46;36.72
72128;DHT22;60000;51.030;7.024;2022-07-01T13:17:54;25.25;37.02
72128;DHT22;60000;51.030;7.024;2022-07-01T13:20:20;25.15;37.26
72128;DHT22;60000;51.030;7.024;2022-07-01T13:22:45;25.07;37.05
72128;DHT22;60000;51.030;7.024;2022-07-01T13:25:12;25.00;36.22
72128;DHT22;60000;51.030;7.024;2022-07-01T13:27:37;25.08;39.17
72128;DHT22;60000;51.030;7.024;2022-07-01T13:30:05;25.02;38.97
72128;DHT22;60000;51.030;7.024;2022-07-01T13:32:30;25.08;39.07
72128;DHT22;60000;51.030;7.024;2022-07-01T13:34:56;25.25;39.69
72128;DHT22;60000;51.030;7.024;2022-07-01T13:37:21;25.38;40.31
72128;DHT22;60000;51.030;7.024;2022-07-01T13:39:46;25.35;39.62
72128;DHT22;60000;51.030;7.024;2022-07-01T13:42:12;25.35;39.05
72128;DHT22;60000;51.030;7.024;2022-07-01T13:44:37;25.13;37.14
72128;DHT22;60000;51.030;7.024;2022-07-01T13:47:03;25.15;37.87
72128;DHT22;60000;51.030;7.024;2022-07-01T13:49:30;25.11;37.49
72128;DHT22;60000;51.030;7.024;2022-07-01T13:51:56;25.25;38.06
72128;DHT22;60000;51.030;7.024;2022-07-01T13:54:21;25.24;38.01
72128;DHT22;60000;51.030;7.024;2022-07-01T13:56:47;25.14;37.48
72128;DHT22;60000;51.030;7.024;2022-07-01T13:59:12;24.84;37.95
72128;DHT22;60000;51.030;7.024;2022-07-01T14:01:38;24.84;38.34
72128;DHT22;60000;51.030;7.024;2022-07-01T14:04:03;24.84;39.36
72128;DHT22;60000;51.030;7.024;2022-07-01T14:06:29;24.88;38.00
72128;DHT22;60000;51.030;7.024;2022-07-01T14:08:54;24.73;37.91
72128;DHT22;60000;51.030;7.024;2022-07-01T14:11:19;24.76;38.53
72128;DHT22;60000;51.030;7.024;2022-07-01T14:13:45;24.91;39.28
72128;DHT22;60000;51.030;7.024;2022-07-01T14:16:10;25.00;37.46
72128;DHT22;60000;51.030;7.024;2022-07-01T14:18:36;25.18;40.03
72128;DHT22;60000;51.030;7.024;2022-07-01T14:21:05;25.39;40.12
72128;DHT22;60000;51.030;7.024;2022-07-01T14:23:31;25.41;37.01
72128;DHT22;60000;51.030;7.024;2022-07-01T14:25:57;25.28;37.04
72128;DHT22;60000;51.030;7.024;2022-07-01T14:28:22;25.14;37.45
72128;DHT22;60000;51.030;7.024;2022-07-01T14:30:47;25.06;36.63
72128;DHT22;60000;51.030;7.024;2022-07-01T14:33:14;24.98;35.73
72128;DHT22;60000;51.030;7.024;2022-07-01T14:35:41;24.98;36.03
72128;DHT22;60000;51.030;7.024;2022-07-01T14:38:06;25.06;36.71
72128;DHT22;60000;51.030;7.024;2022-07-01T14:40:32;25.10;36.74
72128;DHT22;60000;51.030;7.024;2022-07-01T14:42:58;24.88;35.65
72128;DHT22;60000;51.030;7.024;2022-07-01T14:45:23;24.56;36.50
72128;DHT22;60000;51.030;7.024;2022-07-01T14:47:49;24.46;36.85
72128;DHT22;60000;51.030;7.024;2022-07-01T14:50:14;24.53;37.40
72128;DHT22;60000;51.030;7.024;2022-07-01T14:52:39;24.52;37.91
72128;DHT22;60000;51.030;7.024;2022-07-01T14:55:05;24.70;40.67
72128;DHT22;60000;51.030;7.024;2022-07-01T14:57:31;24.79;39.61
72128;DHT22;60000;51.030;7.024;2022-07-01T14:59:56;24.94;36.67
72128;DHT22;60000;51.030;7.024;2022-07-01T15:02:23;24.82;35.09
72128;DHT22;60000;51.030;7.024;2022-07-01T15:04:48;24.87;38.02
72128;DHT22;60000;51.030;7.024;2022-07-01T15:07:14;25.00;35.75
72128;DHT22;60000;51.030;7.024;2022-07-01T15:09:39;24.97;35.32
72128;DHT22;60000;51.030;7.024;2022-07-01T15:12:05;24.96;36.14
72128;DHT22;60000;51.030;7.024;2022-07-01T15:14:31;24.98;36.27
72128;DHT22;60000;51.030;7.024;2022-07-01T15:16:57;24.96;35.27
72128;DHT22;60000;51.030;7.024;2022-07-01T15:19:26;25.08;37.12
72128;DHT22;60000;51.030;7.024;2022-07-01T15:21:54;25.15;36.63
72128;DHT22;60000;51.030;7.024;2022-07-01T15:24:21;25.21;37.54
72128;DHT22;60000;51.030;7.024;2022-07-01T15:26:46;25.10;36.77
72128;DHT22;60000;51.030;7.024;2022-07-01T15:29:17;25.15;36.01
72128;DHT22;60000;51.030;7.024;2022-07-01T15:31:42;25.13;34.79
72128;DHT22;60000;51.030;7.024;2022-07-01T15:34:08;25.10;36.36
72128;DHT22;60000;51.030;7.024;2022-07-01T15:36:43;25.06;36.31
72128;DHT22;60000;51.030;7.024;2022-07-01T15:39:08;25.04;37.67
72128;DHT22;60000;51.030;7.024;2022-07-01T15:41:37;24.97;37.12